Time,TemperatureF,DewpointF,PressureIn,WindDirection,WindDirectionDegrees,WindSpeedMPH,WindSpeedGustMPH,Humidity,HourlyPrecipIn,Conditions,Clouds,dailyrainin,SoftwareType,DateUTC
2013-12-10 00:00:00,29.0,15.0,-100.00,North,-999,-999.0,-999.0,56,0.00,,,-99.99,,2013-12-10 07:00:00,
2013-12-10 00:42:00,29.0,15.0,-100.00,North,-999,-999.0,-999.0,56,0.00,,,-99.99,,2013-12-10 07:42:00,
2013-12-10 00:52:00,29.0,15.0,-100.00,North,-999,-999.0,-999.0,56,0.00,,,-99.99,,2013-12-10 07:52:00,
2013-12-10 01:00:00,25.0,16.0,-100.00,North,-999,-999.0,-999.0,68,0.00,,,-99.99,,2013-12-10 08:00:00,
2013-12-10 01:42:00,25.0,16.0,-100.00,North,-999,-999.0,-999.0,68,0.00,,,-99.99,,2013-12-10 08:42:00,
2013-12-10 01:52:00,25.0,16.0,-100.00,North,-999,-999.0,-999.0,68,0.00,,,-99.99,,2013-12-10 08:52:00,
2013-12-10 02:00:00,27.0,14.0,-100.00,North,-999,-999.0,-999.0,57,0.00,,,-99.99,,2013-12-10 09:00:00,
2013-12-10 02:44:00,27.0,14.0,-100.00,North,-999,-999.0,-999.0,57,0.00,,,-99.99,,2013-12-10 09:44:00,
2013-12-10 02:54:00,27.0,14.0,-100.00,North,-999,-999.0,-999.0,57,0.00,,,-99.99,,2013-12-10 09:54:00,
2013-12-10 03:00:00,25.0,13.0,-100.00,North,-999,-999.0,-999.0,58,0.00,,,-99.99,,2013-12-10 10:00:00,
2013-12-10 03:43:00,25.0,13.0,-100.00,North,-999,-999.0,-999.0,58,0.00,,,-99.99,,2013-12-10 10:43:00,
2013-12-10 03:53:00,25.0,13.0,-100.00,North,-999,-999.0,-999.0,58,0.00,,,-99.99,,2013-12-10 10:53:00,
2013-12-10 04:00:00,25.0,13.0,-100.00,North,-999,-999.0,-999.0,61,0.00,,,-99.99,,2013-12-10 11:00:00,
2013-12-10 04:43:00,25.0,13.0,-100.00,North,-999,-999.0,-999.0,61,0.00,,,-99.99,,2013-12-10 11:43:00,
2013-12-10 04:53:00,25.0,13.0,-100.00,North,-999,-999.0,-999.0,61,0.00,,,-99.99,,2013-12-10 11:53:00,
2013-12-10 05:00:00,27.0,13.0,-100.00,North,-999,-999.0,-999.0,56,0.00,,,-99.99,,2013-12-10 12:00:00,
2013-12-10 05:42:00,27.0,13.0,-100.00,North,-999,-999.0,-999.0,56,0.00,,,-99.99,,2013-12-10 12:42:00,
2013-12-10 05:52:00,27.0,13.0,-100.00,North,-999,-999.0,-999.0,56,0.00,,,-99.99,,2013-12-10 12:52:00,
2013-12-10 06:00:00,28.0,12.0,-100.00,North,-999,-999.0,-999.0,50,0.00,,,-99.99,,2013-12-10 13:00:00,
2013-12-10 06:42:00,28.0,12.0,-100.00,North,-999,-999.0,-999.0,50,0.00,,,-99.99,,2013-12-10 13:42:00,
2013-12-10 06:52:00,28.0,12.0,-100.00,North,-999,-999.0,-999.0,50,0.00,,,-99.99,,2013-12-10 13:52:00,
2013-12-10 07:00:00,26.0,13.0,-100.00,North,-999,-999.0,-999.0,56,0.00,,,-99.99,,2013-12-10 14:00:00,
2013-12-10 07:42:00,26.0,13.0,-100.00,North,-999,-999.0,-999.0,56,0.00,,,-99.99,,2013-12-10 14:42:00,
2013-12-10 07:52:00,26.0,13.0,-100.00,North,-999,-999.0,-999.0,56,0.00,,,-99.99,,2013-12-10 14:52:00,
2013-12-10 08:00:00,31.0,14.0,-100.00,North,-999,-999.0,-999.0,48,0.00,,,-99.99,,2013-12-10 15:00:00,
2013-12-10 08:44:00,31.0,14.0,-100.00,North,-999,-999.0,-999.0,48,0.00,,,-99.99,,2013-12-10 15:44:00,
2013-12-10 08:53:00,31.0,14.0,-100.00,North,-999,-999.0,-999.0,48,0.00,,,-99.99,,2013-12-10 15:53:00,
2013-12-10 16:00:00,58.0,15.0,-100.00,North,-999,-999.0,-999.0,18,0.00,,,-99.99,,2013-12-10 23:00:00,
2013-12-10 16:43:00,58.0,15.0,-100.00,North,-999,-999.0,-999.0,18,0.00,,,-99.99,,2013-12-10 23:43:00,
2013-12-10 16:53:00,58.0,15.0,-100.00,North,-999,-999.0,-999.0,18,0.00,,,-99.99,,2013-12-10 23:53:00,
2013-12-10 17:00:00,56.0,17.0,-100.00,North,-999,-999.0,-999.0,21,0.00,,,-99.99,,2013-12-11 00:00:00,
2013-12-10 17:42:00,56.0,17.0,-100.00,North,-999,-999.0,-999.0,21,0.00,,,-99.99,,2013-12-11 00:42:00,
2013-12-10 17:52:00,56.0,17.0,-100.00,North,-999,-999.0,-999.0,21,0.00,,,-99.99,,2013-12-11 00:52:00,
2013-12-10 18:00:00,46.0,15.0,-100.00,North,-999,-999.0,-999.0,28,0.00,,,-99.99,,2013-12-11 01:00:00,
2013-12-10 18:42:00,46.0,15.0,-100.00,North,-999,-999.0,-999.0,28,0.00,,,-99.99,,2013-12-11 01:42:00,
2013-12-10 18:52:00,46.0,15.0,-100.00,North,-999,-999.0,-999.0,28,0.00,,,-99.99,,2013-12-11 01:52:00,
2013-12-10 19:00:00,41.0,13.0,-100.00,North,-999,-999.0,-999.0,32,0.00,,,-99.99,,2013-12-11 02:00:00,
2013-12-10 19:42:00,41.0,13.0,-100.00,North,-999,-999.0,-999.0,32,0.00,,,-99.99,,2013-12-11 02:42:00,
2013-12-10 19:52:00,41.0,13.0,-100.00,North,-999,-999.0,-999.0,32,0.00,,,-99.99,,2013-12-11 02:52:00,
2013-12-10 20:00:00,39.0,14.0,-100.00,North,-999,-999.0,-999.0,35,0.00,,,-99.99,,2013-12-11 03:00:00,
2013-12-10 20:43:00,39.0,14.0,-100.00,North,-999,-999.0,-999.0,35,0.00,,,-99.99,,2013-12-11 03:43:00,
2013-12-10 20:54:00,39.0,14.0,-100.00,North,-999,-999.0,-999.0,35,0.00,,,-99.99,,2013-12-11 03:54:00,
2013-12-10 21:00:00,37.0,15.0,-100.00,North,-999,-999.0,-999.0,40,0.00,,,-99.99,,2013-12-11 04:00:00,
2013-12-10 21:43:00,37.0,15.0,-100.00,North,-999,-999.0,-999.0,40,0.00,,,-99.99,,2013-12-11 04:43:00,
2013-12-10 21:53:00,37.0,15.0,-100.00,North,-999,-999.0,-999.0,40,0.00,,,-99.99,,2013-12-11 04:53:00,
2013-12-10 22:00:00,36.0,16.0,-100.00,North,-999,-999.0,-999.0,43,0.00,,,-99.99,,2013-12-11 05:00:00,
2013-12-10 22:43:00,36.0,16.0,-100.00,North,-999,-999.0,-999.0,43,0.00,,,-99.99,,2013-12-11 05:43:00,
2013-12-10 22:53:00,36.0,16.0,-100.00,North,-999,-999.0,-999.0,43,0.00,,,-99.99,,2013-12-11 05:53:00,
2013-12-10 23:00:00,35.0,17.0,-100.00,North,-999,-999.0,-999.0,47,0.00,,,-99.99,,2013-12-11 06:00:00,
2013-12-10 23:42:00,35.0,17.0,-100.00,North,-999,-999.0,-999.0,47,0.00,,,-99.99,,2013-12-11 06:42:00,
2013-12-10 23:52:00,35.0,17.0,-100.00,North,-999,-999.0,-999.0,47,0.00,,,-99.99,,2013-12-11 06:52:00,